Time;durP1;ratioP1;P1;durP2;ratioP2;P2;SDS_P1;SDS_P2;PMS_P1;PMS_P2;Temp;Humidity;BMP_temperature;BMP_pressure;BME280_temperature;BME280_humidity;BME280_pressure;Samples;Min_cycle;Max_cycle;Signal;HPM_P1;HPM_P2
2022/06/17 05:05:06;;;;;;;10.05;4.05;;;;;;;18.66;58.12;102370.81;5075012;27;110197;-34
2022/06/17 05:07:37;;;;;;;15.23;3.58;;;;;;;18.64;58.59;102359.03;5075685;27;101329;-34
2022/06/17 05:10:12;;;;;;;7.63;3.50;;;;;;;18.68;58.66;102363.31;5077637;27;97813;-34
2022/06/17 05:12:58;;;;;;;12.02;4.25;;;;;;;18.71;59.27;102359.50;5077822;27;96589;-34
2022/06/17 05:15:24;;;;;;;7.72;3.25;;;;;;;18.70;59.25;102348.59;5079206;27;96756;-34
2022/06/17 05:17:50;;;;;;;5.53;2.78;;;;;;;18.70;58.62;102357.72;5079405;27;101048;-34
2022/06/17 05:20:25;;;;;;;7.00;2.58;;;;;;;18.73;58.90;102348.38;5080447;27;100648;-34
2022/06/17 05:22:56;;;;;;;6.90;3.22;;;;;;;18.68;58.26;102341.34;5081014;27;96548;-34
2022/06/17 05:25:26;;;;;;;6.18;2.92;;;;;;;18.76;58.97;102350.91;5080039;27;96541;-34
2022/06/17 05:27:52;;;;;;;6.07;3.35;;;;;;;18.75;59.19;102350.03;5080792;27;97315;-34
2022/06/17 05:30:17;;;;;;;8.15;2.63;;;;;;;18.82;58.59;102353.25;5079354;27;100951;-34
2022/06/17 05:32:52;;;;;;;6.72;2.80;;;;;;;18.81;58.57;102335.03;5081019;27;96912;-34
2022/06/17 05:35:19;;;;;;;7.32;2.70;;;;;;;18.87;58.22;102342.78;5079672;27;96916;-34
2022/06/17 05:37:45;;;;;;;5.15;2.58;;;;;;;18.87;58.21;102343.66;5079198;27;100891;-34
2022/06/17 05:40:10;;;;;;;5.63;2.88;;;;;;;18.86;58.18;102333.69;5080588;27;99184;-34
2022/06/17 05:42:37;;;;;;;7.15;2.38;;;;;;;18.91;57.86;102336.09;5081191;27;96511;-34
2022/06/17 05:45:04;;;;;;;5.20;3.20;;;;;;;18.98;57.64;102342.91;5079670;27;96875;-34
2022/06/17 05:47:30;;;;;;;5.53;3.03;;;;;;;18.99;57.62;102341.03;5078560;27;101043;-34
2022/06/17 05:49:55;;;;;;;7.38;3.22;;;;;;;18.99;57.33;102332.78;5080506;27;97271;-34
2022/06/17 05:52:20;;;;;;;8.27;3.55;;;;;;;19.03;57.54;102331.56;5080544;27;96722;-34
2022/06/17 05:54:46;;;;;;;12.80;3.55;;;;;;;19.12;57.60;102346.50;5080998;27;96781;-34
2022/06/17 05:57:12;;;;;;;10.90;3.70;;;;;;;19.15;57.39;102347.16;5079013;27;99241;-34
2022/06/17 05:59:37;;;;;;;6.43;3.20;;;;;;;19.18;57.13;102348.78;5080227;27;97946;-34
2022/06/17 06:02:04;;;;;;;9.95;3.03;;;;;;;19.22;57.31;102342.09;5081142;27;96838;-34
2022/06/17 06:04:31;;;;;;;5.00;2.90;;;;;;;19.29;57.23;102337.88;5078789;27;96918;-35
2022/06/17 06:06:56;;;;;;;5.93;2.97;;;;;;;19.44;56.81;102336.72;5078633;27;101521;-34
2022/06/17 06:09:22;;;;;;;7.43;3.35;;;;;;;19.51;56.70;102321.50;5080382;27;97209;-34
2022/06/17 06:11:47;;;;;;;7.95;3.58;;;;;;;19.68;56.09;102324.88;5080274;27;96659;-34
2022/06/17 06:14:12;;;;;;;8.27;3.65;;;;;;;19.74;56.22;102329.94;5079355;27;96900;-34
2022/06/17 06:16:38;;;;;;;9.15;3.53;;;;;;;19.83;55.87;102322.81;5079517;27;111731;-34
2022/06/17 06:19:04;;;;;;;9.40;3.63;;;;;;;19.91;55.81;102321.25;5079876;27;97847;-35
2022/06/17 06:21:30;;;;;;;9.82;3.63;;;;;;;19.99;55.60;102328.88;5079179;27;96634;-34
2022/06/17 06:23:56;;;;;;;9.20;3.97;;;;;;;20.00;55.46;102316.91;5080545;27;96852;-34
2022/06/17 06:26:23;;;;;;;6.50;3.22;;;;;;;19.99;55.11;102311.50;5078084;27;100521;-34
2022/06/17 06:28:48;;;;;;;9.70;4.05;;;;;;;20.04;55.07;102312.91;5078647;27;100976;-34
2022/06/17 06:31:30;;;;;;;5.28;2.83;;;;;;;20.13;54.74;102325.94;5080080;27;96584;-34
2022/06/17 06:33:56;;;;;;;5.22;2.90;;;;;;;20.21;55.11;102328.06;5078528;27;96874;-34
2022/06/17 06:36:21;;;;;;;6.10;2.85;;;;;;;20.18;54.59;102311.81;5079254;27;98140;-34
2022/06/17 06:38:47;;;;;;;7.80;3.78;;;;;;;20.28;54.85;102321.09;5079703;27;97750;-34
2022/06/17 06:41:13;;;;;;;6.10;2.92;;;;;;;20.44;54.62;102323.50;5078554;27;96885;-34
2022/06/17 06:43:39;;;;;;;7.65;2.97;;;;;;;20.51;54.48;102313.75;5080292;27;96819;-34
2022/06/17 06:46:11;;;;;;;6.72;3.25;;;;;;;20.53;53.67;102316.41;5078163;27;100910;-34
2022/06/17 06:48:38;;;;;;;5.80;3.13;;;;;;;20.69;54.07;102316.94;5078140;27;101077;-34
2022/06/17 06:51:03;;;;;;;7.45;2.97;;;;;;;20.74;54.01;102311.94;5078481;27;96542;-34
2022/06/17 06:53:29;;;;;;;5.38;3.17;;;;;;;20.86;53.49;102329.34;5080070;27;96906;-34
2022/06/17 06:55:54;;;;;;;5.20;2.92;;;;;;;20.93;52.86;102333.34;5079401;27;98035;-34
2022/06/17 06:58:23;;;;;;;4.97;2.88;;;;;;;21.05;52.64;102338.84;5079506;27;97820;-34
2022/06/17 07:00:51;;;;;;;5.63;2.75;;;;;;;21.08;52.75;102339.47;5077677;27;96602;-34
2022/06/17 07:03:18;;;;;;;7.00;3.15;;;;;;;21.15;52.50;102346.22;5078424;27;96902;-34
2022/06/17 07:05:48;;;;;;;5.47;2.92;;;;;;;21.24;51.91;102340.94;5077134;27;100979;-34
2022/06/17 07:08:17;;;;;;;9.70;2.85;;;;;;;21.31;52.43;102328.41;5077848;27;101070;-34
2022/06/17 07:10:44;;;;;;;6.63;3.00;;;;;;;21.43;52.03;102327.41;5078214;27;96765;-34
2022/06/17 07:13:09;;;;;;;4.82;3.10;;;;;;;21.51;51.69;102335.03;5078281;27;96901;-34
2022/06/17 07:15:40;;;;;;;5.35;3.20;;;;;;;21.56;51.77;102327.25;5078897;27;97415;-34
2022/06/17 07:18:16;;;;;;;4.47;2.60;;;;;;;21.72;50.66;102332.34;5077890;27;100798;-34
2022/06/17 07:20:46;;;;;;;6.65;3.17;;;;;;;21.80;51.11;102316.00;5078244;27;96660;-34
2022/06/17 07:23:14;;;;;;;8.55;3.13;;;;;;;21.97;50.53;102337.47;5078098;27;96816;-34
2022/06/17 07:25:40;;;;;;;4.72;2.72;;;;;;;22.02;50.10;102331.56;5076959;27;101098;-34
2022/06/17 07:28:07;;;;;;;4.03;2.63;;;;;;;22.21;50.17;102353.81;5078862;27;97879;-34
2022/06/17 07:30:34;;;;;;;4.78;2.67;;;;;;;22.30;50.50;102349.41;5077899;27;96678;-34
2022/06/17 07:32:59;;;;;;;5.65;3.38;;;;;;;22.44;49.94;102357.34;5077745;27;96896;-34
2022/06/17 07:35:26;;;;;;;5.30;2.83;;;;;;;22.50;49.36;102352.28;5078761;27;97467;-34
2022/06/17 07:40:35;;;;;;;6.72;3.13;;;;;;;22.76;49.57;102338.91;5079127;27;96747;-34
2022/06/17 07:43:01;;;;;;;5.60;3.33;;;;;;;22.86;49.28;102343.50;5079513;27;96769;-34
2022/06/17 07:45:28;;;;;;;5.90;3.17;;;;;;;23.02;48.72;102344.88;5078596;27;97982;-34
2022/06/17 07:47:55;;;;;;;6.63;3.33;;;;;;;23.16;48.91;102338.97;5076973;27;105154;-34
2022/06/17 07:50:25;;;;;;;7.38;2.88;;;;;;;23.24;48.55;102341.03;5078541;27;96630;-34
2022/06/17 07:52:51;;;;;;;4.55;2.90;;;;;;;23.24;47.70;102325.31;5077511;27;96826;-35
2022/06/17 07:55:17;;;;;;;6.45;2.75;;;;;;;23.36;48.19;102314.13;5076850;27;100790;-34
2022/06/17 07:57:43;;;;;;;6.35;2.78;;;;;;;23.59;48.43;102323.06;5078303;27;103757;-34
2022/06/17 08:00:16;;;;;;;8.77;3.83;;;;;;;23.73;47.42;102340.13;5077586;27;96609;-34
2022/06/17 08:02:42;;;;;;;5.28;2.35;;;;;;;23.73;47.52;102333.69;5078760;27;96657;-34
2022/06/17 08:05:07;;;;;;;5.03;2.13;;;;;;;23.73;46.83;102333.69;5078044;27;97365;-33
2022/06/17 08:07:33;;;;;;;3.65;2.22;;;;;;;23.89;47.06;102319.31;5078184;27;99027;-34
2022/06/17 08:09:58;;;;;;;4.00;2.42;;;;;;;24.01;46.25;102331.13;5078622;27;96550;-34
2022/06/17 08:12:23;;;;;;;4.22;2.33;;;;;;;24.09;46.94;102345.97;5078848;27;96831;-34
2022/06/17 08:14:49;;;;;;;4.22;2.38;;;;;;;24.08;45.58;102351.66;5077865;27;97918;-34
2022/06/17 08:17:16;;;;;;;4.05;2.25;;;;;;;24.28;46.30;102358.06;5077947;27;99349;-34
2022/06/17 08:19:43;;;;;;;4.35;2.03;;;;;;;24.34;45.71;102349.16;5077203;27;96767;-34
2022/06/17 08:22:09;;;;;;;5.50;1.83;;;;;;;24.53;46.70;102349.16;5077002;27;96868;-34
2022/06/17 08:24:35;;;;;;;3.33;1.75;;;;;;;24.66;45.45;102354.34;5076664;27;100849;-34
2022/06/17 08:27:00;;;;;;;5.53;2.15;;;;;;;24.69;44.88;102336.56;5078167;27;97233;-34
2022/06/17 08:29:27;;;;;;;4.35;2.17;;;;;;;24.80;45.44;102341.91;5078543;27;96539;-34
2022/06/17 08:31:52;;;;;;;3.28;2.15;;;;;;;24.74;45.05;102343.41;5078540;27;96800;-34
2022/06/17 08:34:18;;;;;;;6.40;1.88;;;;;;;24.85;44.37;102330.38;5077932;27;98059;-34
2022/06/17 08:36:45;;;;;;;4.55;1.90;;;;;;;24.96;44.62;102344.94;5077518;27;99489;-34
2022/06/17 08:39:13;;;;;;;6.18;2.33;;;;;;;25.09;44.44;102350.09;5076516;27;96566;-34
2022/06/17 08:41:50;;;;;;;3.58;2.08;;;;;;;25.02;42.03;102351.75;5076761;27;96936;-34
2022/06/17 08:44:57;;;;;;;4.88;1.83;;;;;;;24.96;42.26;102358.78;5076287;27;101046;-34
2022/06/17 08:47:22;;;;;;;3.15;1.80;;;;;;;25.07;43.54;102363.25;5074266;27;99052;-34
2022/06/17 08:49:53;;;;;;;5.13;2.50;;;;;;;25.28;43.78;102360.28;5079842;27;96611;-34
2022/06/17 08:52:25;;;;;;;3.80;1.90;;;;;;;25.34;42.81;102356.03;5080465;27;96849;-34
2022/06/17 08:54:57;;;;;;;3.05;1.92;;;;;;;25.42;43.13;102347.78;5081357;27;97486;-34
2022/06/17 08:57:36;;;;;;;4.03;2.05;;;;;;;25.50;42.00;102339.53;5081803;27;97359;-34
2022/06/17 09:00:18;;;;;;;4.28;1.75;;;;;;;25.57;42.74;102348.13;5081765;27;96573;-34
2022/06/17 09:03:02;;;;;;;;;;;;;;;25.81;42.72;102356.72;5082371;27;96630;-34
2022/06/17 09:06:07;;;;;;;2.30;1.60;;;;;;;26.04;42.96;102350.72;5080560;27;98074;-34
2022/06/17 09:09:17;;;;;;;4.20;1.52;;;;;;;26.19;42.34;102346.31;5081126;27;99061;-34
2022/06/17 09:12:21;;;;;;;3.30;1.60;;;;;;;26.31;41.00;102351.63;5058880;27;96913;-34
2022/06/17 09:14:52;;;;;;;4.20;1.67;;;;;;;26.30;40.94;102345.22;5079432;27;96851;-34
2022/06/17 09:17:39;;;;;;;2.70;1.60;;;;;;;26.52;41.29;102354.91;5079551;27;101204;-35
2022/06/17 09:20:07;;;;;;;3.97;1.88;;;;;;;26.60;41.49;102357.81;5081148;27;97819;-34
2022/06/17 09:22:41;;;;;;;3.53;1.92;;;;;;;26.68;40.48;102356.97;5079932;27;96809;-35
2022/06/17 09:25:15;;;;;;;2.65;1.67;;;;;;;26.71;40.07;102350.22;5080412;27;96753;-34
2022/06/17 09:27:46;;;;;;;3.90;2.10;;;;;;;26.84;41.14;102345.06;5079344;27;100599;-34
2022/06/17 09:30:17;;;;;;;2.95;1.65;;;;;;;26.87;40.30;102351.19;5081050;27;97901;-34
2022/06/17 09:32:49;;;;;;;3.67;1.83;;;;;;;26.88;39.85;102343.72;5079115;27;97323;-34
2022/06/17 09:35:43;;;;;;;5.30;2.10;;;;;;;27.00;40.41;102347.94;5079639;27;96746;-34
2022/06/17 09:38:21;;;;;;;3.20;1.90;;;;;;;26.98;39.73;102340.81;5080954;27;98043;-34
2022/06/17 09:40:55;;;;;;;2.90;1.60;;;;;;;27.06;39.92;102341.72;5079013;27;100779;-34
2022/06/17 09:43:39;;;;;;;2.08;1.45;;;;;;;27.13;38.46;102349.41;5079709;27;96934;-34
2022/06/17 09:46:18;;;;;;;5.05;2.05;;;;;;;27.26;39.31;102345.13;5079385;27;96761;-34
2022/06/17 09:49:08;;;;;;;5.63;1.75;;;;;;;27.24;37.99;102343.56;5078568;27;101380;-35
2022/06/17 09:51:43;;;;;;;3.55;1.80;;;;;;;27.36;39.53;102336.63;5080477;27;97879;-34
2022/06/17 09:54:26;;;;;;;3.13;1.83;;;;;;;27.32;36.88;102332.47;5079528;27;96620;-35
2022/06/17 09:57:17;;;;;;;4.55;1.80;;;;;;;27.40;38.70;102321.34;5079474;27;96670;-35
2022/06/17 10:00:01;;;;;;;5.53;1.90;;;;;;;27.51;37.82;102323.81;5078420;27;100893;-35
2022/06/17 10:02:48;;;;;;;6.38;1.75;;;;;;;27.66;36.78;102324.03;5079735;27;97860;-34
2022/06/17 10:05:29;;;;;;;4.60;1.70;;;;;;;27.73;36.71;102330.66;5078926;27;96853;-35
2022/06/17 10:08:09;;;;;;;3.17;1.73;;;;;;;27.74;37.13;102328.72;5079350;27;96724;-35
2022/06/17 10:10:42;;;;;;;4.85;1.67;;;;;;;27.80;36.71;102310.47;5078699;27;101021;-35
2022/06/17 10:13:13;;;;;;;2.50;1.63;;;;;;;27.99;35.75;102320.47;5078757;27;101267;-34
2022/06/17 10:18:31;;;;;;;5.00;1.75;;;;;;;27.99;37.07;102300.94;5080624;27;97011;-34
2022/06/17 10:18:56;;;;;;;2.95;1.60;;;;;;;28.22;37.05;102312.25;5080886;27;96749;-34
2022/06/17 10:21:42;;;;;;;2.30;1.50;;;;;;;28.17;35.75;102312.75;5078621;27;101107;-34
2022/06/17 10:24:16;;;;;;;4.55;1.90;;;;;;;28.12;35.82;102301.28;5078558;27;100662;-35
2022/06/17 10:26:50;;;;;;;8.35;2.20;;;;;;;28.20;36.30;102295.72;5079793;27;96447;-34
2022/06/17 10:29:27;;;;;;;3.05;1.50;;;;;;;28.25;36.22;102312.78;5080418;27;96560;-35
2022/06/17 10:31:52;;;;;;;4.72;1.67;;;;;;;28.25;36.50;102297.97;5079806;27;97565;-34
2022/06/17 10:34:27;;;;;;;3.05;1.73;;;;;;;28.25;35.70;102307.19;5079828;27;97335;-35
2022/06/17 10:36:56;;;;;;;3.70;2.00;;;;;;;28.35;36.25;102305.09;5080424;27;96659;-35
2022/06/17 10:39:23;;;;;;;3.20;1.83;;;;;;;28.38;36.43;102293.56;5078648;27;96565;-34
2022/06/17 10:41:50;;;;;;;4.40;1.88;;;;;;;28.47;36.43;102290.81;5077789;27;100957;-34
2022/06/17 10:44:21;;;;;;;3.63;1.75;;;;;;;28.63;35.83;102284.31;5078454;27;100599;-35
2022/06/17 10:46:53;;;;;;;3.13;1.80;;;;;;;28.71;35.79;102281.53;5078683;27;96773;-35
2022/06/17 10:49:21;;;;;;;4.47;1.73;;;;;;;28.58;34.24;102274.59;5078706;27;96800;-34
2022/06/17 10:51:51;;;;;;;3.70;1.90;;;;;;;28.78;35.37;102280.63;5079030;27;97954;-34
2022/06/17 10:54:29;;;;;;;6.57;2.10;;;;;;;28.77;34.58;102276.09;5077825;27;102135;-34
2022/06/17 10:57:12;;;;;;;3.22;1.92;;;;;;;28.66;34.82;102268.09;5080038;27;96639;-35
2022/06/17 10:59:43;;;;;;;3.60;1.85;;;;;;;28.72;33.08;102272.97;5078392;27;96784;-34
2022/06/17 11:02:20;;;;;;;3.50;1.80;;;;;;;28.92;34.28;102273.41;5077785;27;101248;-34
2022/06/17 11:04:50;;;;;;;4.95;1.70;;;;;;;28.96;33.89;102259.94;5079029;27;97864;-35
2022/06/17 11:07:21;;;;;;;4.93;1.70;;;;;;;28.84;34.99;102253.94;5080031;27;96664;-34
2022/06/17 11:09:56;;;;;;;4.78;2.00;;;;;;;28.88;35.08;102257.22;5078654;27;96636;-34
2022/06/17 11:12:32;;;;;;;2.25;1.67;;;;;;;28.91;33.91;102243.78;5076909;27;101354;-34
2022/06/17 11:15:05;;;;;;;2.90;1.70;;;;;;;29.00;34.63;102237.09;5077452;27;100843;-35
2022/06/17 11:17:46;;;;;;;3.40;1.88;;;;;;;29.11;34.26;102240.56;5079274;27;96536;-34
2022/06/17 11:20:14;;;;;;;3.40;1.80;;;;;;;29.24;34.00;102238.03;5077980;27;96926;-34
2022/06/17 11:22:40;;;;;;;2.58;1.70;;;;;;;29.22;34.01;102228.97;5078966;27;98152;-34
2022/06/17 11:25:28;;;;;;;6.78;1.92;;;;;;;29.32;33.23;102231.53;5079069;27;97912;-34
2022/06/17 11:28:00;;;;;;;3.40;1.83;;;;;;;29.31;33.00;102216.72;5074639;27;96957;-35
2022/06/17 11:30:34;;;;;;;6.68;1.73;;;;;;;29.46;32.65;102213.09;5077881;27;96837;-35
2022/06/17 11:33:01;;;;;;;3.83;2.00;;;;;;;29.50;32.86;102231.25;5077256;27;100833;-34
2022/06/17 11:35:36;;;;;;;2.97;1.85;;;;;;;29.46;33.47;102236.31;5077546;27;100977;-34
2022/06/17 11:38:05;;;;;;;4.45;1.70;;;;;;;29.47;33.63;102235.28;5079011;27;96771;-34
2022/06/17 11:40:35;;;;;;;3.33;1.88;;;;;;;29.44;33.58;102241.25;5077652;27;96877;-35
2022/06/17 11:43:05;;;;;;;3.03;1.50;;;;;;;29.67;33.95;102249.63;5076894;27;101064;-35
2022/06/17 11:45:36;;;;;;;3.65;2.08;;;;;;;29.73;32.38;102248.91;5077209;27;100965;-34
2022/06/17 11:48:13;;;;;;;6.35;1.88;;;;;;;29.67;32.33;102248.78;5077635;27;96648;-34
2022/06/17 11:50:41;;;;;;;4.07;1.90;;;;;;;29.52;33.72;102243.97;5077577;27;97281;-34
2022/06/17 11:53:15;;;;;;;2.70;1.75;;;;;;;29.64;32.84;102245.25;5077114;27;100942;-35
2022/06/17 11:55:47;;;;;;;2.75;1.90;;;;;;;29.50;33.08;102231.25;5078528;27;97857;-34
2022/06/17 11:58:16;;;;;;;5.57;2.03;;;;;;;29.45;34.14;102222.56;5077686;27;96821;-34
2022/06/17 12:00:51;;;;;;;3.03;1.95;;;;;;;29.52;33.74;102231.94;5077880;27;96995;-34
2022/06/17 12:03:39;;;;;;;4.55;1.88;;;;;;;29.35;32.53;102228.38;5078391;27;97905;-35
2022/06/17 12:06:06;;;;;;;4.88;2.17;;;;;;;29.37;32.70;102229.94;5077765;27;99366;-35
2022/06/17 12:08:42;;;;;;;3.90;1.73;;;;;;;29.38;34.01;102225.22;5078254;27;96519;-34
2022/06/17 12:11:13;;;;;;;4.78;1.80;;;;;;;29.24;32.94;102221.28;5077307;27;96845;-32
2022/06/17 12:13:51;;;;;;;4.63;2.15;;;;;;;29.41;33.23;102211.75;5076734;27;101295;-32
2022/06/17 12:16:22;;;;;;;3.53;1.80;;;;;;;29.39;33.45;102201.81;5076473;27;100916;-32
2022/06/17 12:18:55;;;;;;;8.35;1.95;;;;;;;29.59;32.72;102202.19;5077853;27;96627;-32
2022/06/17 12:21:41;;;;;;;5.68;2.00;;;;;;;29.65;33.55;102207.00;5075762;27;97184;-32
2022/06/17 12:24:17;;;;;;;4.55;2.05;;;;;;;29.82;32.47;102203.06;5076295;27;101325;-32
2022/06/17 12:26:56;;;;;;;3.55;1.92;;;;;;;29.98;33.66;102202.03;5076969;27;100533;-32
2022/06/17 12:29:50;;;;;;;4.80;1.90;;;;;;;30.02;32.69;102202.53;5077350;27;96568;-32
2022/06/17 12:32:39;;;;;;;4.75;2.10;;;;;;;30.01;32.71;102197.97;5076714;27;96897;-32
2022/06/17 12:35:26;;;;;;;4.28;1.88;;;;;;;29.88;32.19;102181.88;5077369;27;98867;-32
2022/06/17 12:38:00;;;;;;;2.80;1.80;;;;;;;29.87;33.82;102188.53;5076376;27;101481;-32
2022/06/17 12:40:34;;;;;;;5.18;1.63;;;;;;;29.93;32.90;102193.34;5076954;27;96670;-35
2022/06/17 12:43:36;;;;;;;3.00;1.63;;;;;;;30.03;33.46;102184.69;5078466;27;96502;-32
2022/06/17 12:46:16;;;;;;;4.15;1.58;;;;;;;30.21;33.21;102176.81;5060292;27;99795;-31
2022/06/17 12:48:54;;;;;;;3.17;1.73;;;;;;;30.34;33.29;102178.09;5076318;27;100680;-35
2022/06/17 12:54:44;;;;;;;6.40;1.58;;;;;;;30.36;32.02;102162.00;5077471;27;96666;-35
2022/06/17 12:57:37;;;;;;;10.45;1.88;;;;;;;30.26;31.55;102157.56;5077524;27;97834;-35
2022/06/17 13:00:07;;;;;;;5.30;1.70;;;;;;;30.26;33.15;102148.31;5072962;27;98639;-35
2022/06/17 13:02:42;;;;;;;2.47;1.43;;;;;;;30.27;32.27;102145.31;5076099;27;96724;-35
2022/06/17 13:05:25;;;;;;;2.67;1.30;;;;;;;30.27;33.03;102138.84;5077800;27;96818;-35
2022/06/17 13:08:09;;;;;;;4.25;1.90;;;;;;;30.40;32.75;102139.03;5077197;27;97554;-35
2022/06/17 13:10:48;;;;;;;3.13;1.20;;;;;;;30.52;31.25;102130.16;5076184;27;100848;-35
2022/06/17 13:13:50;;;;;;;6.30;1.40;;;;;;;30.57;33.25;102133.22;5077241;27;97013;-35
2022/06/17 13:16:26;;;;;;;3.28;1.30;;;;;;;30.59;31.56;102139.50;5077743;27;96819;-35
2022/06/17 13:19:08;;;;;;;5.72;1.45;;;;;;;30.59;32.55;102136.72;5075978;27;101117;-35
2022/06/17 13:21:43;;;;;;;3.65;1.48;;;;;;;30.32;31.69;102125.19;5076260;27;101113;-35
2022/06/17 13:24:29;;;;;;;3.88;1.30;;;;;;;30.41;32.18;102139.91;5076487;27;96564;-35
2022/06/17 13:27:03;;;;;;;2.72;1.20;;;;;;;30.44;32.67;102134.81;5076339;27;96733;-35
2022/06/17 13:29:38;;;;;;;3.55;1.40;;;;;;;30.31;31.82;102140.19;5074602;27;100838;-35
2022/06/17 13:32:16;;;;;;;3.75;1.88;;;;;;;30.42;32.56;102127.66;5075561;27;99824;-35
2022/06/17 13:34:47;;;;;;;1.77;1.08;;;;;;;30.41;33.05;102135.16;5075163;27;97129;-35
2022/06/17 13:37:22;;;;;;;2.30;1.20;;;;;;;30.46;33.10;102127.09;5078104;27;96706;-35
2022/06/17 13:39:53;;;;;;;2.58;1.20;;;;;;;30.44;31.83;102118.03;5078971;27;100979;-35
2022/06/17 13:42:19;;;;;;;1.70;1.05;;;;;;;30.45;32.47;102113.28;5080342;27;97382;-35
2022/06/17 13:45:01;;;;;;;1.77;0.82;;;;;;;30.31;30.52;102106.66;5079629;27;96834;-35
2022/06/17 13:47:41;;;;;;;1.48;1.00;;;;;;;30.26;30.12;102120.34;5079979;27;96682;-35
2022/06/17 13:50:30;;;;;;;2.45;1.08;;;;;;;30.25;31.03;102118.59;5080577;27;99456;-35
2022/06/17 13:53:15;;;;;;;3.13;1.08;;;;;;;30.25;30.97;102107.41;5080701;27;97508;-35
2022/06/17 13:56:01;;;;;;;2.33;1.17;;;;;;;30.09;30.00;102108.47;5079015;27;96636;-35
2022/06/17 13:58:39;;;;;;;5.68;1.50;;;;;;;29.94;31.63;102110.38;5079415;27;96710;-35
2022/06/17 14:01:25;;;;;;;3.42;1.20;;;;;;;29.97;29.99;102107.22;5079004;27;101317;-35
2022/06/17 14:04:01;;;;;;;2.30;1.40;;;;;;;29.87;31.10;102106.63;5075541;27;99065;-35
2022/06/17 14:06:51;;;;;;;1.88;1.08;;;;;;;29.87;31.70;102093.53;5080206;27;96588;-35
2022/06/17 14:09:28;;;;;;;1.55;1.00;;;;;;;29.93;30.85;102080.72;5075948;27;96971;-34
2022/06/17 14:11:54;;;;;;;1.50;1.05;;;;;;;30.05;32.04;102093.13;5079979;27;99485;-35
2022/06/17 14:14:19;;;;;;;2.15;1.02;;;;;;;30.10;31.48;102092.56;5078605;27;101407;-35
2022/06/17 14:16:54;;;;;;;3.40;1.40;;;;;;;30.16;32.15;102089.00;5080497;27;96686;-35
2022/06/17 14:19:27;;;;;;;4.53;1.40;;;;;;;30.04;31.04;102083.91;5079030;27;96733;-35
2022/06/17 14:21:55;;;;;;;3.97;1.10;;;;;;;30.06;32.36;102081.78;5078163;27;100989;-35
2022/06/17 14:24:41;;;;;;;1.60;1.00;;;;;;;30.06;32.24;102081.78;5078478;27;101000;-35
2022/06/17 14:27:09;;;;;;;1.60;1.10;;;;;;;30.12;32.11;102080.13;5080411;27;96542;-35
2022/06/17 14:29:35;;;;;;;2.08;1.20;;;;;;;30.03;32.30;102076.59;5078999;27;96864;-35
2022/06/17 14:32:37;;;;;;;1.77;1.08;;;;;;;30.01;30.13;102066.63;5079555;27;99638;-35
2022/06/17 14:35:04;;;;;;;1.92;1.10;;;;;;;29.93;32.52;102064.81;5079461;27;97358;-35
2022/06/17 14:37:32;;;;;;;2.40;1.30;;;;;;;29.89;31.60;102055.09;5078716;27;96551;-35
2022/06/17 14:40:15;;;;;;;1.60;1.08;;;;;;;29.76;31.64;102047.38;5080704;27;96847;-35
2022/06/17 14:42:56;;;;;;;2.38;1.25;;;;;;;29.85;33.07;102054.59;5078235;27;100993;-35
2022/06/17 14:45:30;;;;;;;1.80;1.05;;;;;;;29.93;32.84;102059.22;5078203;27;98976;-35
2022/06/17 14:48:11;;;;;;;5.38;1.40;;;;;;;29.94;32.84;102058.19;5079386;27;96577;-35
2022/06/17 14:50:39;;;;;;;1.77;1.05;;;;;;;29.94;32.90;102052.59;5080149;27;96838;-35
2022/06/17 14:53:08;;;;;;;2.70;1.30;;;;;;;29.91;32.03;102046.50;5079562;27;98110;-34
2022/06/17 14:55:37;;;;;;;1.98;1.17;;;;;;;29.85;32.01;102034.19;5079095;27;99190;-35
2022/06/17 14:58:03;;;;;;;2.05;1.40;;;;;;;29.96;33.33;102044.00;5078396;27;96761;-35
2022/06/17 15:00:44;;;;;;;5.00;1.35;;;;;;;29.90;32.81;102040.06;5079905;27;96746;-35
2022/06/17 15:03:34;;;;;;;2.28;1.40;;;;;;;29.87;31.68;102031.19;5078039;27;101125;-35
2022/06/17 15:06:00;;;;;;;1.70;1.05;;;;;;;29.83;33.16;102033.50;5077590;27;100933;-35
2022/06/17 15:08:42;;;;;;;2.60;1.40;;;;;;;29.75;32.75;102031.69;5078290;27;96664;-35
2022/06/17 15:11:21;;;;;;;2.33;1.17;;;;;;;29.65;30.44;102028.25;5078288;27;96854;-35
2022/06/17 15:14:07;;;;;;;2.58;1.13;;;;;;;29.58;32.43;102030.09;5077164;27;101323;-35
2022/06/17 15:16:37;;;;;;;4.88;1.35;;;;;;;29.54;32.38;102015.66;5078887;27;100436;-35
2022/06/17 15:19:09;;;;;;;3.80;1.20;;;;;;;29.60;33.45;102031.66;5078260;27;96626;-35
2022/06/17 15:21:46;;;;;;;3.83;1.95;;;;;;;29.56;31.99;102030.28;5078102;27;97028;-35
2022/06/17 15:24:33;;;;;;;3.20;1.10;;;;;;;29.49;32.86;102029.31;5077692;27;101066;-35
2022/06/17 15:27:10;;;;;;;2.20;1.25;;;;;;;29.54;32.32;102025.97;5077500;27;101171;-35
2022/06/17 15:29:36;;;;;;;2.10;1.40;;;;;;;29.52;32.85;102014.97;5079522;27;96508;-35
2022/06/17 15:32:16;;;;;;;2.22;1.40;;;;;;;29.50;32.21;102014.28;5079537;27;96752;-35
2022/06/17 15:34:45;;;;;;;3.15;1.40;;;;;;;29.46;32.84;102007.34;5077250;27;100770;-35
2022/06/17 15:37:30;;;;;;;1.65;1.30;;;;;;;29.46;33.25;102007.34;5078656;27;97955;-35
2022/06/17 15:40:22;;;;;;;3.92;1.50;;;;;;;29.42;32.76;102003.22;5077422;27;96579;-35
2022/06/17 15:43:06;;;;;;;2.20;1.38;;;;;;;29.37;32.57;102000.16;5078846;27;96918;-35
2022/06/17 15:45:32;;;;;;;3.50;1.60;;;;;;;29.32;33.34;101994.25;5078401;27;98965;-35
2022/06/17 15:48:08;;;;;;;4.15;1.42;;;;;;;29.32;33.47;101995.13;5077141;27;100689;-35
2022/06/17 15:50:46;;;;;;;3.83;1.55;;;;;;;29.32;32.86;101995.13;5078993;27;96666;-35
2022/06/17 15:53:21;;;;;;;2.50;1.17;;;;;;;29.29;32.43;101989.03;5077696;27;96769;-35
2022/06/17 15:55:48;;;;;;;2.72;1.30;;;;;;;29.30;33.09;101982.44;5077026;27;100899;-35
2022/06/17 15:58:42;;;;;;;2.78;1.15;;;;;;;29.31;33.69;101972.97;5077164;27;100847;-35
2022/06/17 16:01:09;;;;;;;3.30;1.42;;;;;;;29.35;33.87;101971.56;5077358;27;96809;-35
2022/06/17 16:03:41;;;;;;;2.83;1.40;;;;;;;29.40;33.32;101969.03;5079008;27;96830;-35
2022/06/17 16:06:08;;;;;;;1.92;1.27;;;;;;;29.39;33.78;101956.13;5076222;27;101087;-35
2022/06/17 16:08:41;;;;;;;3.60;1.40;;;;;;;29.36;34.28;101960.16;5076899;27;100713;-35
2022/06/17 16:11:16;;;;;;;5.60;1.73;;;;;;;29.35;33.65;101972.41;5077208;27;96659;-35
2022/06/17 16:13:44;;;;;;;2.45;1.30;;;;;;;29.35;33.87;101969.63;5077454;27;96847;-35
2022/06/17 16:16:32;;;;;;;4.18;1.73;;;;;;;29.38;33.78;101971.16;5078212;27;98024;-35
2022/06/17 16:19:19;;;;;;;5.05;1.80;;;;;;;29.35;33.92;101969.63;5076540;27;103541;-35
2022/06/17 16:22:09;;;;;;;3.65;1.55;;;;;;;29.31;33.72;101947.84;5077201;27;96676;-35
2022/06/17 16:24:36;;;;;;;3.85;1.30;;;;;;;29.31;34.05;101964.59;5077546;27;96755;-35
2022/06/17 16:27:16;;;;;;;3.08;1.48;;;;;;;29.29;34.13;101955.56;5077951;27;98368;-35
2022/06/17 16:29:45;;;;;;;2.80;1.60;;;;;;;29.25;34.40;101945.81;5077881;27;98701;-32
2022/06/17 16:32:13;;;;;;;4.10;1.67;;;;;;;29.28;34.28;101945.47;5076341;27;96676;-32
2022/06/17 16:34:42;;;;;;;3.58;1.52;;;;;;;29.24;34.36;101955.25;5078828;27;97012;-32
2022/06/17 16:37:18;;;;;;;3.97;1.58;;;;;;;29.20;35.27;101946.41;5077858;27;98005;-32
2022/06/17 16:39:44;;;;;;;5.63;1.55;;;;;;;29.14;34.27;101956.41;5076557;27;101038;-32
2022/06/17 16:45:18;;;;;;;3.47;1.40;;;;;;;29.13;34.46;101949.09;5076189;27;96664;-35
2022/06/17 16:47:43;;;;;;;3.72;1.60;;;;;;;29.07;34.73;101943.41;5077998;27;97908;-35
2022/06/17 16:50:08;;;;;;;4.63;1.38;;;;;;;29.07;35.06;101932.25;5078262;27;97345;-35
2022/06/17 16:52:34;;;;;;;5.68;1.85;;;;;;;29.07;34.58;101927.53;5077827;27;96782;-35
2022/06/17 16:54:59;;;;;;;4.15;1.77;;;;;;;29.07;35.04;101929.47;5078364;27;96852;-35
2022/06/17 16:57:37;;;;;;;7.18;1.67;;;;;;;29.07;34.59;101930.31;5077196;27;97855;-35
2022/06/17 17:00:11;;;;;;;4.70;1.50;;;;;;;29.04;34.55;101925.09;5077683;27;97795;-35
2022/06/17 17:02:37;;;;;;;2.83;1.60;;;;;;;29.02;34.94;101921.63;5077844;27;96494;-35
2022/06/17 17:05:02;;;;;;;4.60;1.70;;;;;;;28.97;35.08;101918.53;5077401;27;96834;-35
2022/06/17 17:07:28;;;;;;;2.58;1.70;;;;;;;29.00;34.90;101919.00;5077224;27;99326;-35